createdAt,value
2023-03-05T00:00:18.362Z,99760.00
2023-03-05T00:01:51.490Z,99755.00
2023-03-05T00:03:24.633Z,99768.00
2023-03-05T00:04:57.804Z,99763.00
2023-03-05T00:06:32.805Z,99758.00
2023-03-05T00:08:25.873Z,99753.00
2023-03-05T00:10:02.510Z,99760.00
2023-03-05T00:11:36.043Z,99761.00
2023-03-05T00:13:08.439Z,99750.00
2023-03-05T00:14:41.778Z,99757.00
2023-03-05T00:16:17.263Z,99753.00
2023-03-05T00:17:50.674Z,99748.00
2023-03-05T00:19:23.807Z,99749.00
2023-03-05T00:20:56.201Z,99749.00
2023-03-05T00:22:29.334Z,99744.00
2023-03-05T00:24:05.413Z,99741.00
2023-03-05T00:25:40.121Z,99749.00
2023-03-05T00:27:13.241Z,99743.00
2023-03-05T00:28:49.913Z,99741.00
2023-03-05T00:30:23.324Z,99745.00
2023-03-05T00:31:55.599Z,99738.00
2023-03-05T00:33:29.378Z,99743.00
2023-03-05T00:35:02.790Z,99734.00
2023-03-05T00:36:40.145Z,99733.00
2023-03-05T00:38:14.361Z,99729.00
2023-03-05T00:39:47.490Z,99732.00
2023-03-05T00:41:22.320Z,99717.00
2023-03-05T00:42:55.804Z,99728.00
2023-03-05T00:44:28.917Z,99724.00
2023-03-05T00:46:01.317Z,99729.00
2023-03-05T00:47:34.563Z,99722.00
2023-03-05T00:49:08.745Z,99726.00
2023-03-05T00:50:41.997Z,99726.00
2023-03-05T00:52:15.089Z,99724.00
2023-03-05T00:53:49.046Z,99719.00
2023-03-05T00:55:22.420Z,99715.00
2023-03-05T00:56:56.901Z,99721.00
2023-03-05T00:58:29.777Z,99722.00
2023-03-05T01:00:03.419Z,99721.00
2023-03-05T01:01:36.654Z,99719.00
2023-03-05T01:03:10.624Z,99712.00
2023-03-05T01:04:46.998Z,99707.00
2023-03-05T01:06:20.595Z,99702.00
2023-03-05T01:07:54.536Z,99700.00
2023-03-05T01:09:27.828Z,99692.00
2023-03-05T01:11:00.184Z,99696.00
2023-03-05T01:12:34.704Z,99699.00
2023-03-05T01:14:08.097Z,99697.00
2023-03-05T01:15:40.361Z,99694.00
2023-03-05T01:17:13.802Z,99693.00
2023-03-05T01:18:47.552Z,99687.00
2023-03-05T01:20:23.387Z,99694.00
2023-03-05T01:21:56.867Z,99685.00
2023-03-05T01:23:30.180Z,99682.00
2023-03-05T01:25:03.555Z,99683.00
2023-03-05T01:26:37.292Z,99684.00
2023-03-05T01:28:12.324Z,99684.00
2023-03-05T01:29:45.412Z,99681.00
2023-03-05T01:31:18.507Z,99686.00
2023-03-05T01:32:50.721Z,99685.00
2023-03-05T01:34:23.851Z,99686.00
2023-03-05T01:35:57.105Z,99676.00
2023-03-05T01:37:30.363Z,99682.00
2023-03-05T01:39:03.885Z,99678.00
2023-03-05T01:40:37.375Z,99675.00
2023-03-05T01:42:10.677Z,99675.00
2023-03-05T01:43:47.277Z,99677.00
2023-03-05T01:45:19.491Z,99677.00
2023-03-05T01:46:52.639Z,99664.00
2023-03-05T01:48:25.385Z,99667.00
2023-03-05T01:49:59.593Z,99671.00
2023-03-05T01:51:38.794Z,99670.00
2023-03-05T01:53:11.998Z,99674.00
2023-03-05T01:54:50.929Z,99658.00
2023-03-05T01:56:23.231Z,99666.00
2023-03-05T01:58:03.009Z,99655.00
2023-03-05T01:59:39.414Z,99660.00
2023-03-05T02:01:13.346Z,99659.00
2023-03-05T02:02:51.118Z,99659.00
2023-03-05T02:04:33.455Z,99651.00
2023-03-05T02:06:06.106Z,99655.00
2023-03-05T02:07:42.985Z,99647.00
2023-03-05T02:09:16.758Z,99647.00
2023-03-05T02:10:53.949Z,99652.00
2023-03-05T02:12:30.538Z,99645.00
2023-03-05T02:14:05.305Z,99642.00
2023-03-05T02:15:41.941Z,99647.00
2023-03-05T02:17:17.442Z,99642.00
2023-03-05T02:18:50.159Z,99645.00
2023-03-05T02:20:27.688Z,99643.00
2023-03-05T02:22:02.420Z,99635.00
2023-03-05T02:23:39.593Z,99635.00
2023-03-05T02:25:16.973Z,99632.00
2023-03-05T02:26:50.470Z,99626.00
2023-03-05T02:28:31.224Z,99636.00
2023-03-05T02:30:04.862Z,99630.00
2023-03-05T02:31:38.950Z,99622.00
2023-03-05T02:33:13.884Z,99623.00
2023-03-05T02:34:46.980Z,99612.00
2023-03-05T02:36:20.471Z,99633.00
2023-03-05T02:37:54.969Z,99612.00
2023-03-05T02:39:28.412Z,99619.00
2023-03-05T02:41:01.110Z,99620.00
2023-03-05T02:42:35.539Z,99624.00
2023-03-05T02:44:09.609Z,99618.00
2023-03-05T02:45:43.229Z,99618.00
2023-03-05T02:47:16.581Z,99613.00
2023-03-05T02:48:49.903Z,99618.00
2023-03-05T02:50:23.849Z,99610.00
2023-03-05T02:51:57.156Z,99608.00
2023-03-05T02:53:30.896Z,99611.00
2023-03-05T02:55:04.841Z,99614.00
2023-03-05T02:56:39.744Z,99608.00
2023-03-05T02:58:12.916Z,99606.00
2023-03-05T02:59:46.501Z,99604.00
2023-03-05T03:01:20.350Z,99598.00
2023-03-05T03:02:54.041Z,99599.00
2023-03-05T03:04:27.492Z,99592.00
2023-03-05T03:06:00.623Z,99593.00
2023-03-05T03:07:34.340Z,99587.00
2023-03-05T03:09:09.025Z,99599.00
2023-03-05T03:10:41.598Z,99605.00
2023-03-05T03:12:15.417Z,99597.00
2023-03-05T03:13:49.171Z,99603.00
2023-03-05T03:15:22.611Z,99593.00
2023-03-05T03:16:55.763Z,99585.00
2023-03-05T03:18:27.896Z,99587.00
2023-03-05T03:20:03.308Z,99583.00
2023-03-05T03:21:36.409Z,99581.00
2023-03-05T03:23:10.004Z,99584.00
2023-03-05T03:24:45.238Z,99573.00
2023-03-05T03:26:19.204Z,99571.00
2023-03-05T03:27:52.509Z,99581.00
2023-03-05T03:29:25.749Z,99576.00
2023-03-05T03:30:58.927Z,99570.00
2023-03-05T03:32:33.580Z,99565.00
2023-03-05T03:34:17.193Z,99573.00
2023-03-05T03:35:50.518Z,99572.00
2023-03-05T03:37:23.845Z,99571.00
2023-03-05T03:38:56.986Z,99562.00
2023-03-05T03:40:32.953Z,99570.00
2023-03-05T03:42:06.855Z,99556.00
2023-03-05T03:43:40.193Z,99565.00
2023-03-05T03:45:14.510Z,99562.00
2023-03-05T03:46:49.564Z,99563.00
2023-03-05T03:48:22.730Z,99549.00
2023-03-05T03:49:56.104Z,99550.00
2023-03-05T03:51:29.202Z,99546.00
2023-03-05T03:53:02.647Z,99545.00
2023-03-05T03:54:36.607Z,99545.00
2023-03-05T03:56:11.279Z,99545.00
2023-03-05T03:57:44.467Z,99545.00
2023-03-05T03:59:16.715Z,99548.00
2023-03-05T04:00:50.017Z,99550.00
2023-03-05T04:02:23.688Z,99535.00
2023-03-05T04:03:56.946Z,99543.00
2023-03-05T04:05:29.111Z,99536.00
2023-03-05T04:07:02.925Z,99532.00
2023-03-05T04:08:36.254Z,99535.00
2023-03-05T04:10:11.422Z,99533.00
2023-03-05T04:11:46.074Z,99527.00
2023-03-05T04:13:18.166Z,99533.00
2023-03-05T04:14:51.789Z,99532.00
2023-03-05T04:16:25.353Z,99530.00
2023-03-05T04:17:58.620Z,99527.00
2023-03-05T04:19:31.993Z,99520.00
2023-03-05T04:21:06.017Z,99518.00
2023-03-05T04:22:39.352Z,99520.00
2023-03-05T04:24:12.730Z,99523.00
2023-03-05T04:25:46.105Z,99518.00
2023-03-05T04:27:20.458Z,99521.00
2023-03-05T04:28:53.568Z,99524.00
2023-03-05T04:30:26.680Z,99521.00
2023-03-05T04:31:59.860Z,99524.00
2023-03-05T04:33:33.750Z,99531.00
2023-03-05T04:35:06.398Z,99518.00
2023-03-05T04:36:39.436Z,99518.00
2023-03-05T04:38:13.251Z,99511.00
2023-03-05T04:39:45.385Z,99514.00
2023-03-05T04:41:18.583Z,99512.00
2023-03-05T04:42:53.438Z,99502.00
2023-03-05T04:44:25.982Z,99507.00
2023-03-05T04:45:59.084Z,99503.00
2023-03-05T04:47:32.231Z,99510.00
2023-03-05T04:49:05.581Z,99495.00
2023-03-05T04:50:38.912Z,99497.00
2023-03-05T04:52:15.251Z,99497.00
2023-03-05T04:53:48.608Z,99500.00
2023-03-05T04:55:20.755Z,99486.00
2023-03-05T04:56:54.081Z,99487.00
2023-03-05T04:58:29.719Z,99495.00
2023-03-05T05:00:01.949Z,99490.00
2023-03-05T05:01:35.370Z,99484.00
2023-03-05T05:03:08.537Z,99482.00
2023-03-05T05:04:44.958Z,99476.00
2023-03-05T05:06:18.154Z,99478.00
2023-03-05T05:07:54.275Z,99484.00
2023-03-05T05:09:27.834Z,99479.00
2023-03-05T05:11:04.024Z,99477.00
2023-03-05T05:12:37.921Z,99492.00
2023-03-05T05:14:11.416Z,99484.00
2023-03-05T05:15:44.590Z,99484.00
2023-03-05T05:17:17.724Z,99477.00
2023-03-05T05:18:50.845Z,99484.00
2023-03-05T05:20:23.926Z,99472.00
2023-03-05T05:21:57.050Z,99476.00
2023-03-05T05:23:30.207Z,99476.00
2023-03-05T05:25:03.257Z,99483.00
2023-03-05T05:26:36.588Z,99479.00
2023-03-05T05:28:10.370Z,99476.00
2023-03-05T05:29:46.409Z,99476.00
2023-03-05T05:31:19.416Z,99474.00
2023-03-05T05:32:52.552Z,99472.00
2023-03-05T05:34:26.046Z,99465.00
2023-03-05T05:35:58.178Z,99466.00
2023-03-05T05:37:31.768Z,99479.00
2023-03-05T05:39:05.433Z,99482.00
2023-03-05T05:40:38.667Z,99474.00
2023-03-05T05:42:11.087Z,99474.00
2023-03-05T05:43:44.732Z,99471.00
2023-03-05T05:45:19.466Z,99464.00
2023-03-05T05:46:52.844Z,99468.00
2023-03-05T05:48:25.966Z,99456.00
2023-03-05T05:49:59.387Z,99463.00
2023-03-05T05:51:32.494Z,99465.00
2023-03-05T05:53:05.576Z,99460.00
2023-03-05T05:54:38.794Z,99458.00
2023-03-05T05:56:14.596Z,99459.00
2023-03-05T05:57:47.778Z,99455.00
2023-03-05T05:59:21.067Z,99451.00
2023-03-05T06:00:55.683Z,99463.00
2023-03-05T06:02:28.810Z,99459.00
2023-03-05T06:04:02.068Z,99455.00
2023-03-05T06:05:35.831Z,99451.00
2023-03-05T06:07:09.232Z,99461.00
2023-03-05T06:08:43.185Z,99448.00
2023-03-05T06:10:16.519Z,99456.00
2023-03-05T06:11:48.619Z,99458.00
2023-03-05T06:13:21.954Z,99456.00
2023-03-05T06:14:55.140Z,99452.00
2023-03-05T06:16:29.613Z,99452.00
2023-03-05T06:18:03.244Z,99451.00
2023-03-05T06:19:36.369Z,99449.00
2023-03-05T06:21:12.877Z,99455.00
2023-03-05T06:22:46.030Z,99454.00
2023-03-05T06:24:20.367Z,99457.00
2023-03-05T06:25:53.257Z,99453.00
2023-03-05T06:27:26.466Z,99458.00
2023-03-05T06:28:59.988Z,99461.00
2023-03-05T06:30:33.420Z,99462.00
2023-03-05T06:32:08.593Z,99462.00
2023-03-05T06:33:42.886Z,99464.00
2023-03-05T06:35:15.986Z,99460.00
2023-03-05T06:36:49.420Z,99460.00
2023-03-05T06:38:22.540Z,99459.00
2023-03-05T06:39:56.002Z,99454.00
2023-03-05T06:41:31.667Z,99452.00
2023-03-05T06:43:04.761Z,99456.00
2023-03-05T06:44:40.204Z,99445.00
2023-03-05T06:46:15.553Z,99447.00
2023-03-05T06:47:49.943Z,99439.00
2023-03-05T06:49:23.102Z,99445.00
2023-03-05T06:50:56.181Z,99448.00
2023-03-05T06:52:29.349Z,99444.00
2023-03-05T06:54:06.875Z,99456.00
2023-03-05T06:55:40.497Z,99455.00
2023-03-05T06:57:13.727Z,99449.00
2023-03-05T06:58:48.822Z,99440.00
2023-03-05T07:00:24.353Z,99448.00
2023-03-05T07:01:57.783Z,99446.00
2023-03-05T07:03:32.164Z,99446.00
2023-03-05T07:05:06.355Z,99443.00
2023-03-05T07:06:42.032Z,99438.00
2023-03-05T07:08:15.401Z,99444.00
2023-03-05T07:09:50.225Z,99447.00
2023-03-05T07:11:23.844Z,99450.00
2023-03-05T07:12:57.053Z,99443.00
2023-03-05T07:14:30.138Z,99446.00
2023-03-05T07:16:07.690Z,99439.00
2023-03-05T07:17:40.784Z,99443.00
2023-03-05T07:19:15.363Z,99440.00
2023-03-05T07:20:48.923Z,99432.00
2023-03-05T07:22:22.013Z,99432.00
2023-03-05T07:23:56.723Z,99429.00
2023-03-05T07:25:28.906Z,99435.00
2023-03-05T07:27:02.077Z,99428.00
2023-03-05T07:28:35.974Z,99431.00
2023-03-05T07:30:11.495Z,99434.00
2023-03-05T07:31:44.581Z,99432.00
2023-03-05T07:33:17.827Z,99433.00
2023-03-05T07:34:52.230Z,99435.00
2023-03-05T07:36:25.544Z,99431.00
2023-03-05T07:37:58.681Z,99432.00
2023-03-05T07:39:31.833Z,99424.00
2023-03-05T07:41:06.940Z,99426.00
2023-03-05T07:42:40.329Z,99430.00
2023-03-05T07:44:20.186Z,99431.00
2023-03-05T07:45:53.360Z,99417.00
2023-03-05T07:47:26.542Z,99419.00
2023-03-05T07:49:00.259Z,99415.00
2023-03-05T07:50:34.639Z,99417.00
2023-03-05T07:52:08.257Z,99421.00
2023-03-05T07:53:41.396Z,99416.00
2023-03-05T07:55:14.690Z,99418.00
2023-03-05T07:56:48.593Z,99418.00
2023-03-05T07:58:22.074Z,99407.00
2023-03-05T07:59:55.499Z,99406.00
2023-03-05T08:01:29.801Z,99408.00
2023-03-05T08:03:02.895Z,99411.00
2023-03-05T08:04:36.477Z,99413.00
2023-03-05T08:06:13.212Z,99406.00
2023-03-05T08:07:46.508Z,99405.00
2023-03-05T08:09:20.323Z,99401.00
2023-03-05T08:10:53.438Z,99401.00
2023-03-05T08:12:26.871Z,99404.00
2023-03-05T08:14:00.878Z,99404.00
2023-03-05T08:15:34.012Z,99393.00
2023-03-05T08:17:08.525Z,99400.00
2023-03-05T08:18:42.115Z,99402.00
2023-03-05T08:20:15.357Z,99390.00
2023-03-05T08:21:50.184Z,99399.00
2023-03-05T08:23:23.317Z,99379.00
2023-03-05T08:24:56.607Z,99384.00
2023-03-05T08:26:32.658Z,99380.00
2023-03-05T08:28:06.334Z,99388.00
2023-03-05T08:29:39.610Z,99385.00
2023-03-05T08:31:14.022Z,99383.00
2023-03-05T08:32:49.148Z,99389.00
2023-03-05T08:34:22.457Z,99389.00
2023-03-05T08:35:55.712Z,99385.00
2023-03-05T08:37:30.432Z,99387.00
2023-03-05T08:39:03.713Z,99384.00
2023-03-05T08:40:36.880Z,99378.00
2023-03-05T08:42:10.099Z,99382.00
2023-03-05T08:43:44.084Z,99386.00
2023-03-05T08:45:17.333Z,99385.00
2023-03-05T08:46:50.453Z,99370.00
2023-03-05T08:48:23.717Z,99375.00
2023-03-05T08:49:57.511Z,99378.00
2023-03-05T08:51:30.741Z,99373.00
2023-03-05T08:53:05.442Z,99367.00
2023-03-05T08:54:39.030Z,99363.00
2023-03-05T08:56:12.740Z,99365.00
2023-03-05T08:57:46.137Z,99373.00
2023-03-05T08:59:19.552Z,99367.00
2023-03-05T09:00:53.190Z,99377.00
2023-03-05T09:02:26.356Z,99373.00
2023-03-05T09:04:00.781Z,99364.00
2023-03-05T09:05:33.817Z,99369.00
2023-03-05T09:07:07.708Z,99365.00
2023-03-05T09:08:43.065Z,99357.00
2023-03-05T09:10:18.516Z,99359.00
2023-03-05T09:11:52.732Z,99355.00
2023-03-05T09:13:26.097Z,99355.00
2023-03-05T09:14:59.289Z,99360.00
2023-03-05T09:16:32.972Z,99362.00
2023-03-05T09:18:08.905Z,99355.00
2023-03-05T09:19:42.191Z,99364.00
2023-03-05T09:21:18.681Z,99362.00
2023-03-05T09:22:52.187Z,99360.00
2023-03-05T09:24:26.885Z,99367.00
2023-03-05T09:26:00.217Z,99359.00
2023-03-05T09:27:34.828Z,99362.00
2023-03-05T09:29:08.759Z,99357.00
2023-03-05T09:30:42.228Z,99365.00
2023-03-05T09:32:15.359Z,99369.00
2023-03-05T09:33:50.297Z,99360.00
2023-03-05T09:35:23.976Z,99354.00
2023-03-05T09:36:57.149Z,99347.00
2023-03-05T09:38:30.859Z,99354.00
2023-03-05T09:40:06.343Z,99351.00
2023-03-05T09:42:23.279Z,99350.00
2023-03-05T09:44:12.710Z,99345.00
2023-03-05T09:46:00.760Z,99350.00
2023-03-05T09:47:53.766Z,99344.00
2023-03-05T09:49:44.621Z,99345.00
2023-03-05T09:51:25.577Z,99341.00
2023-03-05T09:53:07.014Z,99340.00
2023-03-05T09:54:44.128Z,99354.00
2023-03-05T09:56:25.877Z,99341.00
2023-03-05T09:58:06.883Z,99339.00
2023-03-05T09:59:49.306Z,99343.00
2023-03-05T10:01:29.135Z,99341.00
2023-03-05T10:03:11.638Z,99342.00
2023-03-05T10:04:49.941Z,99334.00
2023-03-05T10:06:27.322Z,99338.00
2023-03-05T10:08:05.974Z,99334.00
2023-03-05T10:09:47.457Z,99335.00
2023-03-05T10:11:44.724Z,99334.00
2023-03-05T10:13:25.349Z,99338.00
2023-03-05T10:15:00.716Z,99329.00
2023-03-05T10:16:57.897Z,99330.00
2023-03-05T10:18:41.126Z,99335.00
2023-03-05T10:20:34.109Z,99328.00
2023-03-05T10:22:20.004Z,99333.00
2023-03-05T10:24:04.389Z,99325.00
2023-03-05T10:25:59.248Z,99331.00
2023-03-05T10:27:51.218Z,99319.00
2023-03-05T10:30:01.553Z,99324.00
2023-03-05T10:31:51.170Z,99326.00
2023-03-05T10:33:35.784Z,99326.00
2023-03-05T10:35:25.762Z,99316.00
2023-03-05T10:37:17.863Z,99318.00
2023-03-05T10:39:42.993Z,99307.00
2023-03-05T10:41:30.097Z,99308.00
2023-03-05T10:43:20.468Z,99304.00
2023-03-05T10:44:57.168Z,99293.00
2023-03-05T10:46:36.460Z,99306.00
2023-03-05T10:48:28.464Z,99296.00
2023-03-05T10:50:01.848Z,99291.00
2023-03-05T10:51:41.261Z,99296.00
2023-03-05T10:53:24.419Z,99288.00
2023-03-05T10:54:57.544Z,99291.00
2023-03-05T10:56:31.758Z,99293.00
2023-03-05T10:58:13.772Z,99291.00
2023-03-05T10:59:52.314Z,99287.00
2023-03-05T11:01:28.969Z,99293.00
2023-03-05T11:03:05.572Z,99287.00
2023-03-05T11:04:41.528Z,99288.00
2023-03-05T11:06:15.904Z,99279.00
2023-03-05T11:07:49.049Z,99286.00
2023-03-05T11:09:29.040Z,99287.00
2023-03-05T11:11:18.942Z,99287.00
2023-03-05T11:12:54.226Z,99278.00
2023-03-05T11:14:33.449Z,99282.00
2023-03-05T11:16:15.468Z,99278.00
2023-03-05T11:18:04.130Z,99274.00
2023-03-05T11:19:37.622Z,99264.00
2023-03-05T11:21:19.500Z,99267.00
2023-03-05T11:23:11.783Z,99248.00
2023-03-05T11:24:46.798Z,99263.00
2023-03-05T11:26:23.495Z,99260.00
2023-03-05T11:27:59.815Z,99251.00
2023-03-05T11:29:35.947Z,99259.00
2023-03-05T11:31:24.203Z,99255.00
2023-03-05T11:33:19.307Z,99257.00
2023-03-05T11:34:53.819Z,99253.00
2023-03-05T11:36:31.288Z,99237.00
2023-03-05T11:38:07.775Z,99251.00
2023-03-05T11:39:41.242Z,99239.00
2023-03-05T11:41:15.067Z,99248.00
2023-03-05T11:42:56.428Z,99241.00
2023-03-05T11:44:38.988Z,99231.00
2023-03-05T11:46:14.048Z,99237.00
2023-03-05T11:47:50.320Z,99235.00
2023-03-05T11:49:28.821Z,99226.00
2023-03-05T11:51:08.903Z,99229.00
2023-03-05T11:52:49.553Z,99228.00
2023-03-05T11:54:29.353Z,99222.00
2023-03-05T11:56:16.484Z,99224.00
2023-03-05T11:58:18.699Z,99222.00
2023-03-05T11:59:57.154Z,99227.00
2023-03-05T12:01:35.131Z,99219.00
2023-03-05T12:03:15.500Z,99216.00
2023-03-05T12:04:50.168Z,99218.00
2023-03-05T12:06:34.343Z,99222.00
2023-03-05T12:08:14.506Z,99211.00
2023-03-05T12:09:51.874Z,99210.00
2023-03-05T12:11:29.455Z,99205.00
2023-03-05T12:13:15.881Z,99206.00
2023-03-05T12:15:02.365Z,99202.00
2023-03-05T12:16:41.864Z,99204.00
2023-03-05T12:18:39.064Z,99201.00
2023-03-05T12:20:19.438Z,99198.00
2023-03-05T12:21:54.305Z,99188.00
2023-03-05T12:23:28.288Z,99193.00
2023-03-05T12:25:28.881Z,99194.00
2023-03-05T12:27:15.841Z,99203.00
2023-03-05T12:28:57.702Z,99206.00
2023-03-05T12:31:02.228Z,99193.00
2023-03-05T12:33:00.691Z,99190.00
2023-03-05T12:34:57.161Z,99184.00
2023-03-05T12:36:39.835Z,99170.00
2023-03-05T12:38:33.160Z,99169.00
2023-03-05T12:40:22.686Z,99171.00
2023-03-05T12:41:56.551Z,99172.00
2023-03-05T12:43:32.603Z,99161.00
2023-03-05T12:45:33.574Z,99158.00
2023-03-05T12:47:23.891Z,99160.00
2023-03-05T12:48:57.065Z,99153.00
2023-03-05T12:50:51.429Z,99156.00
2023-03-05T12:52:30.550Z,99146.00
2023-03-05T12:54:31.892Z,99144.00
2023-03-05T12:56:18.759Z,99138.00
2023-03-05T12:57:59.363Z,99136.00
2023-03-05T12:59:44.519Z,99141.00
2023-03-05T13:01:46.710Z,99133.00
2023-03-05T13:03:27.567Z,99127.00
2023-03-05T13:05:07.419Z,99115.00
2023-03-05T13:06:41.366Z,99118.00
2023-03-05T13:08:22.468Z,99117.00
2023-03-05T13:09:57.728Z,99123.00
2023-03-05T13:11:34.981Z,99114.00
2023-03-05T13:13:16.009Z,99103.00
2023-03-05T13:14:58.348Z,99103.00
2023-03-05T13:16:40.312Z,99107.00
2023-03-05T13:18:22.244Z,99109.00
2023-03-05T13:19:54.727Z,99105.00
2023-03-05T13:21:31.254Z,99105.00
2023-03-05T13:23:18.107Z,99099.00
2023-03-05T13:25:04.659Z,99097.00
2023-03-05T13:26:39.490Z,99093.00
2023-03-05T13:28:16.382Z,99101.00
2023-03-05T13:29:53.565Z,99088.00
2023-03-05T13:31:26.726Z,99078.00
2023-03-05T13:33:03.900Z,99081.00
2023-03-05T13:34:47.368Z,99077.00
2023-03-05T13:36:22.622Z,99079.00
2023-03-05T13:37:56.001Z,99084.00
2023-03-05T13:39:34.505Z,99074.00
2023-03-05T13:41:20.678Z,99074.00
2023-03-05T13:42:56.559Z,99076.00
2023-03-05T13:44:31.180Z,99081.00
2023-03-05T13:46:04.396Z,99077.00
2023-03-05T13:47:37.613Z,99062.00
2023-03-05T13:49:28.788Z,99070.00
2023-03-05T13:51:06.814Z,99067.00
2023-03-05T13:52:40.328Z,99068.00
2023-03-05T13:54:18.811Z,99056.00
2023-03-05T13:55:55.319Z,99068.00
2023-03-05T13:57:41.074Z,99055.00
2023-03-05T13:59:20.456Z,99060.00
2023-03-05T14:01:06.335Z,99061.00
2023-03-05T14:02:44.762Z,99056.00
2023-03-05T14:04:23.732Z,99063.00
2023-03-05T14:05:57.128Z,99054.00
2023-03-05T14:07:38.456Z,99058.00
2023-03-05T14:09:22.742Z,99052.00
2023-03-05T14:11:15.227Z,99047.00
2023-03-05T14:12:52.514Z,99041.00
2023-03-05T14:14:28.307Z,99035.00
2023-03-05T14:16:06.694Z,99032.00
2023-03-05T14:17:42.937Z,99033.00
2023-03-05T14:19:36.021Z,99029.00
2023-03-05T14:21:12.316Z,99029.00
2023-03-05T14:22:49.402Z,99030.00
2023-03-05T14:24:28.216Z,99026.00
2023-03-05T14:26:29.764Z,99020.00
2023-03-05T14:28:05.364Z,99018.00
2023-03-05T14:29:38.966Z,99016.00
2023-03-05T14:31:17.978Z,99015.00
2023-03-05T14:32:54.059Z,99008.00
2023-03-05T14:34:31.800Z,99014.00
2023-03-05T14:36:06.886Z,99005.00
2023-03-05T14:37:44.941Z,98998.00
2023-03-05T14:39:36.786Z,99000.00
2023-03-05T14:41:39.992Z,99000.00
2023-03-05T14:43:13.349Z,98996.00
2023-03-05T14:44:46.678Z,98985.00
2023-03-05T14:46:20.001Z,98985.00
2023-03-05T14:47:57.374Z,98985.00
2023-03-05T14:49:31.791Z,98978.00
2023-03-05T14:51:05.880Z,98978.00
2023-03-05T14:52:39.093Z,98979.00
2023-03-05T14:54:21.756Z,98967.00
2023-03-05T14:55:57.701Z,98974.00
2023-03-05T14:57:33.673Z,98965.00
2023-03-05T14:59:06.747Z,98968.00
2023-03-05T15:00:40.072Z,98970.00
2023-03-05T15:02:17.550Z,98974.00
2023-03-05T15:03:50.704Z,98957.00
2023-03-05T15:05:23.820Z,98961.00
2023-03-05T15:06:56.972Z,98949.00
2023-03-05T15:08:33.397Z,98960.00
2023-03-05T15:10:08.625Z,98953.00
2023-03-05T15:11:43.054Z,98952.00
2023-03-05T15:13:17.599Z,98945.00
2023-03-05T15:14:50.918Z,98941.00
2023-03-05T15:16:24.691Z,98942.00
2023-03-05T15:17:57.797Z,98943.00
2023-03-05T15:19:30.989Z,98938.00
2023-03-05T15:21:04.500Z,98937.00
2023-03-05T15:22:38.414Z,98943.00
2023-03-05T15:24:14.645Z,98942.00
2023-03-05T15:25:47.772Z,98940.00
2023-03-05T15:27:22.313Z,98931.00
2023-03-05T15:30:32.223Z,98924.00
2023-03-05T15:32:06.177Z,98931.00
2023-03-05T15:33:41.637Z,98929.00
2023-03-05T15:35:14.950Z,98920.00
2023-03-05T15:36:49.098Z,98927.00
2023-03-05T15:38:22.432Z,98922.00
2023-03-05T15:39:55.815Z,98915.00
2023-03-05T15:41:29.254Z,98912.00
2023-03-05T15:43:03.894Z,98913.00
2023-03-05T15:44:39.137Z,98915.00
2023-03-05T15:46:12.519Z,98914.00
2023-03-05T15:47:45.899Z,98920.00
2023-03-05T15:49:18.616Z,98901.00
2023-03-05T15:50:51.784Z,98898.00
2023-03-05T15:52:25.032Z,98904.00
2023-03-05T15:53:58.080Z,98907.00
2023-03-05T15:55:31.136Z,98900.00
2023-03-05T15:57:07.779Z,98901.00
2023-03-05T15:58:43.250Z,98901.00
2023-03-05T16:00:21.079Z,98893.00
2023-03-05T16:01:55.373Z,98895.00
2023-03-05T16:03:28.554Z,98892.00
2023-03-05T16:05:01.753Z,98898.00
2023-03-05T16:06:35.799Z,98891.00
2023-03-05T16:08:09.902Z,98888.00
2023-03-05T16:09:49.140Z,98881.00
2023-03-05T16:11:23.166Z,98882.00
2023-03-05T16:13:02.286Z,98890.00
2023-03-05T16:14:39.769Z,98876.00
2023-03-05T16:16:14.020Z,98877.00
2023-03-05T16:17:53.230Z,98871.00
2023-03-05T16:19:28.898Z,98869.00
2023-03-05T16:21:02.180Z,98870.00
2023-03-05T16:22:35.520Z,98875.00
2023-03-05T16:24:08.770Z,98872.00
2023-03-05T16:25:42.018Z,98863.00
2023-03-05T16:27:15.321Z,98865.00
2023-03-05T16:28:48.421Z,98863.00
2023-03-05T16:30:23.149Z,98867.00
2023-03-05T16:31:56.440Z,98864.00
2023-03-05T16:33:31.670Z,98863.00
2023-03-05T16:35:05.579Z,98852.00
2023-03-05T16:36:38.729Z,98863.00
2023-03-05T16:38:11.922Z,98860.00
2023-03-05T16:39:45.038Z,98857.00
2023-03-05T16:41:22.027Z,98857.00
2023-03-05T16:42:56.278Z,98855.00
2023-03-05T16:44:29.445Z,98862.00
2023-03-05T16:46:03.915Z,98850.00
2023-03-05T16:47:37.979Z,98846.00
2023-03-05T16:49:11.181Z,98849.00
2023-03-05T16:50:44.681Z,98855.00
2023-03-05T16:52:19.730Z,98853.00
2023-03-05T16:53:55.755Z,98859.00
2023-03-05T16:55:29.102Z,98846.00
2023-03-05T16:57:02.229Z,98851.00
2023-03-05T16:58:37.911Z,98849.00
2023-03-05T17:00:13.096Z,98845.00
2023-03-05T17:01:47.507Z,98852.00
2023-03-05T17:03:20.757Z,98845.00
2023-03-05T17:04:55.861Z,98853.00
2023-03-05T17:06:31.979Z,98841.00
2023-03-05T17:08:06.143Z,98851.00
2023-03-05T17:09:39.882Z,98846.00
2023-03-05T17:11:13.960Z,98846.00
2023-03-05T17:12:48.239Z,98851.00
2023-03-05T17:14:21.600Z,98846.00
2023-03-05T17:15:57.013Z,98846.00
2023-03-05T17:17:32.436Z,98851.00
2023-03-05T17:19:05.768Z,98833.00
2023-03-05T17:20:38.889Z,98849.00
2023-03-05T17:22:12.831Z,98847.00
2023-03-05T17:23:45.940Z,98846.00
2023-03-05T17:25:19.808Z,98854.00
2023-03-05T17:26:53.057Z,98843.00
2023-03-05T17:28:26.620Z,98845.00
2023-03-05T17:29:59.693Z,98840.00
2023-03-05T17:31:33.324Z,98846.00
2023-03-05T17:33:08.105Z,98851.00
2023-03-05T17:34:41.494Z,98839.00
2023-03-05T17:36:17.308Z,98840.00
2023-03-05T17:37:55.112Z,98847.00
2023-03-05T17:39:28.366Z,98848.00
2023-03-05T17:41:01.612Z,98848.00
2023-03-05T17:42:34.701Z,98853.00
2023-03-05T17:44:07.837Z,98858.00
2023-03-05T17:45:41.220Z,98849.00
2023-03-05T17:47:14.821Z,98848.00
2023-03-05T17:48:49.502Z,98846.00
2023-03-05T17:50:22.823Z,98847.00
2023-03-05T17:51:56.544Z,98846.00
2023-03-05T17:53:29.773Z,98849.00
2023-03-05T17:55:08.727Z,98835.00
2023-03-05T17:56:41.892Z,98838.00
2023-03-05T17:58:15.323Z,98833.00
2023-03-05T17:59:49.176Z,98829.00
2023-03-05T18:01:28.389Z,98841.00
2023-03-05T18:03:02.958Z,98840.00
2023-03-05T18:04:37.476Z,98835.00
2023-03-05T18:06:10.551Z,98839.00
2023-03-05T18:07:43.673Z,98825.00
2023-03-05T18:09:16.766Z,98831.00
2023-03-05T18:10:50.274Z,98838.00
2023-03-05T18:12:23.675Z,98842.00
2023-03-05T18:13:56.883Z,98841.00
2023-03-05T18:15:31.322Z,98841.00
2023-03-05T18:17:04.711Z,98839.00
2023-03-05T18:18:38.241Z,98837.00
2023-03-05T18:20:28.513Z,98841.00
2023-03-05T18:22:01.758Z,98845.00
2023-03-05T18:23:35.077Z,98843.00
2023-03-05T18:25:11.474Z,98837.00
2023-03-05T18:26:45.104Z,98839.00
2023-03-05T18:28:19.846Z,98841.00
2023-03-05T18:29:54.163Z,98829.00
2023-03-05T18:31:27.349Z,98832.00
2023-03-05T18:33:01.230Z,98831.00
2023-03-05T18:34:34.887Z,98825.00
2023-03-05T18:36:10.960Z,98827.00
2023-03-05T18:37:44.277Z,98824.00
2023-03-05T18:39:18.597Z,98823.00
2023-03-05T18:40:52.836Z,98826.00
2023-03-05T18:42:25.934Z,98828.00
2023-03-05T18:43:59.759Z,98815.00
2023-03-05T18:45:34.130Z,98815.00
2023-03-05T18:47:07.604Z,98817.00
2023-03-05T18:48:40.878Z,98811.00
2023-03-05T18:50:18.471Z,98812.00
2023-03-05T18:51:53.142Z,98816.00